Time;durP1;ratioP1;P1;durP2;ratioP2;P2;SDS_P1;SDS_P2;PMS_P1;PMS_P2;Temp;Humidity;BMP_temperature;BMP_pressure;BME280_temperature;BME280_humidity;BME280_pressure;Samples;Min_cycle;Max_cycle;Signal;HPM_P1;HPM_P2
2020/12/16 00:02:05;;;;;;;;;;;6.20;99.90;;;;;;5070134;28;19914;-65
2020/12/16 00:04:31;;;;;;;;;;;6.00;99.90;;;;;;5068884;28;20361;-65
2020/12/16 00:06:56;;;;;;;;;;;6.00;99.90;;;;;;5070588;28;19912;-65
2020/12/16 00:09:22;;;;;;;;;;;5.90;99.90;;;;;;5068006;28;19916;-65
2020/12/16 00:11:47;;;;;;;;;;;5.90;99.90;;;;;;5070602;28;19954;-65
2020/12/16 00:14:13;;;;;;;;;;;5.90;99.90;;;;;;5068020;28;19923;-66
2020/12/16 00:16:38;;;;;;;;;;;6.00;99.90;;;;;;5071416;28;20275;-65
2020/12/16 00:19:04;;;;;;;;;;;5.90;99.90;;;;;;5067118;28;20295;-65
2020/12/16 00:21:29;;;;;;;;;;;5.80;99.90;;;;;;5072236;28;19934;-65
2020/12/16 00:23:55;;;;;;;;;;;5.80;99.90;;;;;;5066854;28;19905;-65
2020/12/16 00:26:20;;;;;;;;;;;5.70;99.90;;;;;;5072420;28;19940;-66
2020/12/16 00:28:46;;;;;;;;;;;5.70;99.90;;;;;;5065668;28;19961;-65
2020/12/16 00:31:12;;;;;;;;;;;5.60;99.90;;;;;;5072400;28;19908;-65
2020/12/16 00:33:38;;;;;;;;;;;5.60;99.90;;;;;;5061689;28;19908;-65
2020/12/16 00:36:03;;;;;;;;;;;5.60;99.90;;;;;;5070720;28;19981;-66
2020/12/16 00:38:29;;;;;;;;;;;5.50;99.90;;;;;;5065289;28;19909;-65
2020/12/16 00:40:55;;;;;;;;;;;5.60;99.90;;;;;;5071978;28;19943;-65
2020/12/16 00:43:20;;;;;;;;;;;5.70;99.90;;;;;;5067454;28;19948;-65
2020/12/16 00:45:46;;;;;;;;;;;5.70;99.90;;;;;;5071658;28;19974;-65
2020/12/16 00:48:11;;;;;;;;;;;5.70;99.90;;;;;;5065999;28;19908;-65
2020/12/16 00:50:37;;;;;;;;;;;5.50;99.90;;;;;;5067836;28;19904;-65
2020/12/16 00:53:02;;;;;;;;;;;5.60;99.90;;;;;;5065150;28;19908;-65
2020/12/16 00:55:28;;;;;;;;;;;5.60;99.90;;;;;;5066689;28;19911;-65
2020/12/16 00:57:54;;;;;;;;;;;5.50;99.90;;;;;;5064903;28;19920;-65
2020/12/16 01:00:19;;;;;;;;;;;5.60;99.90;;;;;;5074045;28;19911;-66
2020/12/16 01:02:46;;;;;;;;;;;5.40;99.90;;;;;;5070914;28;19905;-66
2020/12/16 01:05:15;;;;;;;;;;;5.40;99.90;;;;;;5071421;28;19904;-65
2020/12/16 01:07:41;;;;;;;;;;;5.40;99.90;;;;;;5066738;28;19909;-65
2020/12/16 01:10:07;;;;;;;;;;;5.50;99.90;;;;;;5063804;28;20406;-65
2020/12/16 01:12:37;;;;;;;;;;;5.60;99.90;;;;;;5065083;28;19908;-65
2020/12/16 01:15:05;;;;;;;;;;;5.50;99.90;;;;;;5068192;28;19991;-65
2020/12/16 01:17:30;;;;;;;;;;;5.40;99.90;;;;;;5067589;28;19916;-65
2020/12/16 01:19:56;;;;;;;;;;;5.30;99.90;;;;;;5068581;28;19924;-65
2020/12/16 01:22:21;;;;;;;;;;;5.50;99.90;;;;;;5066363;28;19935;-65
2020/12/16 01:24:47;;;;;;;;;;;5.40;99.90;;;;;;5058603;28;20379;-65
2020/12/16 01:27:13;;;;;;;;;;;5.70;99.90;;;;;;5067530;28;19909;-65
2020/12/16 01:29:38;;;;;;;;;;;5.60;99.90;;;;;;5064266;28;19957;-65
2020/12/16 01:32:04;;;;;;;;;;;5.70;99.90;;;;;;5068862;28;19908;-65
2020/12/16 01:34:29;;;;;;;;;;;5.80;99.90;;;;;;5066612;28;19985;-65
2020/12/16 01:36:55;;;;;;;;;;;5.70;99.90;;;;;;5068865;28;20089;-65
2020/12/16 01:39:20;;;;;;;;;;;5.80;99.90;;;;;;5066323;28;20472;-65
2020/12/16 01:41:46;;;;;;;;;;;5.70;99.90;;;;;;5068942;28;19926;-65
2020/12/16 01:44:16;;;;;;;;;;;5.90;99.90;;;;;;5067374;28;19911;-64
2020/12/16 01:46:45;;;;;;;;;;;5.90;99.90;;;;;;5069527;28;19994;-65
2020/12/16 01:49:11;;;;;;;;;;;5.90;99.90;;;;;;5061231;28;19912;-66
2020/12/16 01:51:37;;;;;;;;;;;5.90;99.90;;;;;;5069946;28;19904;-65
2020/12/16 01:54:03;;;;;;;;;;;5.90;99.90;;;;;;5064910;28;20664;-65
2020/12/16 01:56:29;;;;;;;;;;;5.70;99.90;;;;;;5070520;28;19912;-65
2020/12/16 01:58:57;;;;;;;;;;;5.80;99.90;;;;;;5063827;28;19912;-65
2020/12/16 02:01:23;;;;;;;;;;;5.70;99.90;;;;;;5069138;28;19904;-65
2020/12/16 02:03:51;;;;;;;;;;;5.60;99.90;;;;;;5064234;28;19934;-65
2020/12/16 02:06:17;;;;;;;;;;;5.50;99.90;;;;;;5068631;28;19991;-65
2020/12/16 02:08:45;;;;;;;;;;;5.50;99.90;;;;;;5063105;28;19916;-65
2020/12/16 02:11:10;;;;;;;;;;;5.50;99.90;;;;;;5070303;28;19911;-65
2020/12/16 02:13:36;;;;;;;;;;;5.30;99.90;;;;;;5067435;28;20006;-65
2020/12/16 02:16:01;;;;;;;;;;;5.10;99.90;;;;;;5068081;28;19944;-65
2020/12/16 02:18:27;;;;;;;;;;;5.20;99.90;;;;;;5066514;28;19942;-65
2020/12/16 02:20:53;;;;;;;;;;;5.30;99.90;;;;;;5067276;28;19911;-65
2020/12/16 02:23:19;;;;;;;;;;;5.20;99.90;;;;;;5059047;28;19909;-65
2020/12/16 02:25:45;;;;;;;;;;;5.20;99.90;;;;;;5063735;28;19911;-65
2020/12/16 02:28:11;;;;;;;;;;;5.20;99.90;;;;;;5064109;28;19908;-66
2020/12/16 02:30:36;;;;;;;;;;;5.20;99.90;;;;;;5065556;28;20375;-65
2020/12/16 02:33:02;;;;;;;;;;;5.10;99.90;;;;;;5066642;28;19908;-65
2020/12/16 02:35:27;;;;;;;;;;;5.20;99.90;;;;;;5069891;28;20287;-65
2020/12/16 02:37:53;;;;;;;;;;;5.10;99.90;;;;;;5065175;28;19917;-65
2020/12/16 02:40:18;;;;;;;;;;;5.00;99.90;;;;;;5062545;28;19908;-65
2020/12/16 02:42:44;;;;;;;;;;;5.20;99.90;;;;;;5063709;28;19913;-65
2020/12/16 02:45:09;;;;;;;;;;;5.10;99.90;;;;;;5069873;28;19987;-65
2020/12/16 02:47:35;;;;;;;;;;;5.20;99.90;;;;;;5063789;28;20007;-65
2020/12/16 02:50:01;;;;;;;;;;;5.00;99.90;;;;;;5065044;28;19995;-65
2020/12/16 02:52:26;;;;;;;;;;;4.80;99.90;;;;;;5065664;28;19915;-66
2020/12/16 02:54:52;;;;;;;;;;;4.60;99.90;;;;;;5064015;28;19948;-65
2020/12/16 02:57:17;;;;;;;;;;;4.80;99.90;;;;;;5066892;28;19917;-65
2020/12/16 02:59:53;;;;;;;;;;;4.70;99.90;;;;;;5067514;28;19904;-65
2020/12/16 03:02:19;;;;;;;;;;;4.70;99.90;;;;;;5067858;28;19954;-65
2020/12/16 03:04:44;;;;;;;;;;;4.80;99.90;;;;;;5062353;28;19912;-65
2020/12/16 03:07:10;;;;;;;;;;;4.90;99.90;;;;;;5067502;28;19908;-65
2020/12/16 03:09:35;;;;;;;;;;;4.80;99.90;;;;;;5061059;28;20314;-66
2020/12/16 03:12:01;;;;;;;;;;;4.70;99.90;;;;;;5071838;28;19920;-65
2020/12/16 03:14:26;;;;;;;;;;;4.60;99.90;;;;;;5069592;28;19912;-65
2020/12/16 03:16:54;;;;;;;;;;;4.60;99.90;;;;;;5071572;28;19935;-65
2020/12/16 03:19:19;;;;;;;;;;;4.70;99.90;;;;;;5069312;28;19912;-65
2020/12/16 03:21:45;;;;;;;;;;;4.70;99.90;;;;;;5072161;28;19912;-65
2020/12/16 03:24:10;;;;;;;;;;;4.50;99.90;;;;;;5068392;28;19911;-65
2020/12/16 03:26:39;;;;;;;;;;;4.50;99.90;;;;;;5072657;28;20337;-65
2020/12/16 03:29:04;;;;;;;;;;;4.40;99.90;;;;;;5065544;28;20001;-65
2020/12/16 03:31:30;;;;;;;;;;;4.40;99.90;;;;;;5073397;28;20356;-65
2020/12/16 03:33:55;;;;;;;;;;;4.50;99.90;;;;;;5063687;28;20426;-65
2020/12/16 03:36:21;;;;;;;;;;;4.50;99.90;;;;;;5073236;28;20375;-65
2020/12/16 03:38:47;;;;;;;;;;;4.60;99.90;;;;;;5067437;28;19958;-65
2020/12/16 03:41:14;;;;;;;;;;;4.30;99.90;;;;;;5073148;28;19958;-65
2020/12/16 03:43:40;;;;;;;;;;;4.40;99.90;;;;;;5068104;28;19918;-65
2020/12/16 03:46:09;;;;;;;;;;;4.40;99.90;;;;;;5073039;28;19904;-65
2020/12/16 03:48:35;;;;;;;;;;;4.40;99.90;;;;;;5068112;28;19912;-65
2020/12/16 03:51:02;;;;;;;;;;;4.00;99.90;;;;;;5072829;28;20434;-65
2020/12/16 03:53:28;;;;;;;;;;;4.10;99.90;;;;;;5069708;28;19965;-65
2020/12/16 03:55:53;;;;;;;;;;;4.10;99.90;;;;;;5070989;28;20360;-65
2020/12/16 03:58:19;;;;;;;;;;;4.10;99.90;;;;;;5046266;28;19917;-65
2020/12/16 04:00:45;;;;;;;;;;;4.10;99.90;;;;;;5072953;28;20384;-65
2020/12/16 04:03:10;;;;;;;;;;;4.10;99.90;;;;;;5064769;28;19950;-65
2020/12/16 04:05:36;;;;;;;;;;;4.00;99.90;;;;;;5060555;28;19912;-65
2020/12/16 04:08:02;;;;;;;;;;;3.80;99.90;;;;;;5066937;28;19939;-65
2020/12/16 04:10:28;;;;;;;;;;;4.10;99.90;;;;;;5072457;28;19916;-66
2020/12/16 04:12:53;;;;;;;;;;;4.00;99.90;;;;;;5052965;28;20400;-65
2020/12/16 04:15:19;;;;;;;;;;;4.10;99.90;;;;;;5072317;28;19947;-65
2020/12/16 04:17:44;;;;;;;;;;;4.20;99.90;;;;;;5069340;28;20129;-66
2020/12/16 04:20:11;;;;;;;;;;;4.10;99.90;;;;;;5065062;28;19990;-65
2020/12/16 04:22:36;;;;;;;;;;;4.10;99.90;;;;;;5068792;28;20372;-65
2020/12/16 04:25:02;;;;;;;;;;;4.10;99.90;;;;;;5066357;28;19995;-65
2020/12/16 04:27:28;;;;;;;;;;;4.10;99.90;;;;;;5067072;28;19908;-65
2020/12/16 04:29:53;;;;;;;;;;;4.10;99.90;;;;;;5062241;28;19904;-65
2020/12/16 04:32:19;;;;;;;;;;;4.40;99.90;;;;;;5070213;28;19908;-65
2020/12/16 04:34:44;;;;;;;;;;;4.70;99.90;;;;;;5063137;28;20276;-65
2020/12/16 04:37:10;;;;;;;;;;;4.50;99.90;;;;;;5069348;28;19917;-65
2020/12/16 04:39:35;;;;;;;;;;;4.70;99.90;;;;;;5070068;28;20330;-65
2020/12/16 04:42:01;;;;;;;;;;;4.70;99.90;;;;;;5070059;28;19913;-65
2020/12/16 04:44:27;;;;;;;;;;;5.10;99.90;;;;;;5069944;28;19911;-65
2020/12/16 04:46:53;;;;;;;;;;;5.20;99.90;;;;;;5070078;28;20301;-65
2020/12/16 04:49:18;;;;;;;;;;;5.40;99.90;;;;;;5066723;28;19908;-65
2020/12/16 04:51:44;;;;;;;;;;;5.60;99.90;;;;;;5070695;28;19904;-65
2020/12/16 04:54:10;;;;;;;;;;;5.60;99.90;;;;;;5062520;28;19912;-66
2020/12/16 04:56:36;;;;;;;;;;;5.80;99.90;;;;;;5066433;28;19920;-65
2020/12/16 04:59:03;;;;;;;;;;;5.80;99.90;;;;;;5056670;28;19909;-64
2020/12/16 05:01:28;;;;;;;;;;;6.00;99.90;;;;;;5071801;28;19912;-65
2020/12/16 05:03:54;;;;;;;;;;;6.10;99.90;;;;;;5064958;28;19915;-65
2020/12/16 05:06:39;;;;;;;;;;;5.90;99.90;;;;;;5069476;28;19912;-65
2020/12/16 05:09:09;;;;;;;;;;;6.20;99.90;;;;;;5065499;28;19931;-65
2020/12/16 05:11:35;;;;;;;;;;;7.20;99.90;;;;;;5070476;28;19987;-66
2020/12/16 05:14:08;;;;;;;;;;;7.00;99.90;;;;;;5067539;28;20388;-66
2020/12/16 05:16:50;;;;;;;;;;;7.20;99.90;;;;;;5070636;28;20430;-66
2020/12/16 05:19:27;;;;;;;;;;;7.00;99.90;;;;;;5067727;28;20077;-66
2020/12/16 05:22:09;;;;;;;;;;;7.00;99.90;;;;;;5069186;28;19905;-65
2020/12/16 05:24:36;;;;;;;;;;;7.00;99.90;;;;;;5060768;28;19912;-65
2020/12/16 05:27:01;;;;;;;;;;;7.10;99.90;;;;;;5067749;28;19908;-67
2020/12/16 05:29:27;;;;;;;;;;;7.00;99.90;;;;;;5068592;28;19915;-65
2020/12/16 05:31:52;;;;;;;;;;;7.10;99.90;;;;;;5068534;28;20352;-65
2020/12/16 05:34:18;;;;;;;;;;;7.20;99.90;;;;;;5061267;28;19912;-66
2020/12/16 05:36:44;;;;;;;;;;;7.10;99.90;;;;;;5064584;28;19915;-65
2020/12/16 05:39:10;;;;;;;;;;;7.20;99.90;;;;;;5058620;28;20549;-66
2020/12/16 05:41:36;;;;;;;;;;;7.20;99.90;;;;;;5064023;28;19910;-66
2020/12/16 05:44:15;;;;;;;;;;;7.10;99.90;;;;;;5066688;28;20364;-66
2020/12/16 05:46:40;;;;;;;;;;;7.20;99.90;;;;;;5070336;28;20340;-66
2020/12/16 05:49:20;;;;;;;;;;;7.20;99.90;;;;;;5064735;28;19942;-71
2020/12/16 05:51:53;;;;;;;;;;;7.20;99.90;;;;;;5068337;28;19953;-73
2020/12/16 05:54:19;;;;;;;;;;;7.10;99.90;;;;;;5068191;28;19959;-65
2020/12/16 05:56:45;;;;;;;;;;;7.30;99.90;;;;;;5069036;28;19920;-72
2020/12/16 05:59:10;;;;;;;;;;;7.20;99.90;;;;;;5065092;28;19909;-65
2020/12/16 06:01:37;;;;;;;;;;;7.40;99.90;;;;;;5068624;28;19908;-65
2020/12/16 06:04:03;;;;;;;;;;;7.30;99.90;;;;;;5061723;28;19909;-64
2020/12/16 06:06:28;;;;;;;;;;;7.40;99.90;;;;;;5069095;28;19912;-65
2020/12/16 06:08:54;;;;;;;;;;;7.70;99.90;;;;;;5066667;28;20428;-64
2020/12/16 06:11:20;;;;;;;;;;;7.80;99.90;;;;;;5069528;28;20400;-64
2020/12/16 06:13:46;;;;;;;;;;;7.80;99.90;;;;;;5067440;28;19915;-70
2020/12/16 06:16:11;;;;;;;;;;;7.80;99.90;;;;;;5068237;28;19909;-66
2020/12/16 06:18:43;;;;;;;;;;;7.70;99.90;;;;;;5048664;28;19920;-66
2020/12/16 06:21:10;;;;;;;;;;;7.80;99.90;;;;;;5059822;28;19997;-65
2020/12/16 06:23:37;;;;;;;;;;;7.90;99.90;;;;;;5061581;28;19993;-66
2020/12/16 06:26:04;;;;;;;;;;;7.70;99.90;;;;;;5069832;28;19904;-65
2020/12/16 06:28:29;;;;;;;;;;;7.70;99.90;;;;;;5064585;28;20054;-65
2020/12/16 06:30:58;;;;;;;;;;;7.70;99.90;;;;;;5070440;28;19993;-66
2020/12/16 06:33:32;;;;;;;;;;;7.90;99.90;;;;;;5063873;28;19908;-66
2020/12/16 06:35:59;;;;;;;;;;;8.10;99.90;;;;;;5052079;28;20382;-66
2020/12/16 06:38:25;;;;;;;;;;;8.10;99.90;;;;;;5067151;28;20410;-65
2020/12/16 06:40:52;;;;;;;;;;;8.00;99.90;;;;;;5070156;28;19904;-66
2020/12/16 06:43:39;;;;;;;;;;;8.10;99.90;;;;;;5063702;28;19915;-66
2020/12/16 06:46:24;;;;;;;;;;;8.10;99.90;;;;;;5072794;28;19950;-65
2020/12/16 06:48:49;;;;;;;;;;;8.00;99.90;;;;;;5063896;28;20380;-66
2020/12/16 06:51:16;;;;;;;;;;;8.20;99.90;;;;;;5074404;28;19949;-65
2020/12/16 06:53:42;;;;;;;;;;;8.20;99.90;;;;;;5068042;28;19908;-66
2020/12/16 06:56:08;;;;;;;;;;;8.40;99.90;;;;;;5074030;28;19904;-66
2020/12/16 06:58:37;;;;;;;;;;;8.40;99.90;;;;;;5060166;28;20494;-64
2020/12/16 07:01:12;;;;;;;;;;;8.40;99.90;;;;;;5073253;28;20422;-66
2020/12/16 07:03:38;;;;;;;;;;;8.90;99.90;;;;;;5063821;28;20010;-66
2020/12/16 07:06:03;;;;;;;;;;;8.60;99.90;;;;;;5073249;28;19954;-66
2020/12/16 07:08:29;;;;;;;;;;;8.60;99.90;;;;;;5070237;28;19946;-66
2020/12/16 07:10:55;;;;;;;;;;;8.50;99.90;;;;;;5073822;28;19970;-67
2020/12/16 07:13:22;;;;;;;;;;;8.60;99.90;;;;;;5061508;28;19915;-64
2020/12/16 07:15:48;;;;;;;;;;;8.80;99.90;;;;;;5073545;28;19913;-64
2020/12/16 07:18:42;;;;;;;;;;;8.60;99.90;;;;;;5063190;28;19970;-64
2020/12/16 07:21:08;;;;;;;;;;;8.80;99.90;;;;;;5068786;28;20513;-61
2020/12/16 07:23:59;;;;;;;;;;;8.80;99.90;;;;;;5066974;28;19912;-64
2020/12/16 07:26:25;;;;;;;;;;;8.80;99.90;;;;;;5038631;28;19912;-84
2020/12/16 07:28:51;;;;;;;;;;;8.70;99.90;;;;;;5066748;28;19908;-82
2020/12/16 07:31:16;;;;;;;;;;;8.70;99.90;;;;;;5072477;28;20010;-76
2020/12/16 07:33:43;;;;;;;;;;;8.80;99.90;;;;;;5065747;28;19912;-64
2020/12/16 07:36:08;;;;;;;;;;;8.70;99.90;;;;;;5072087;28;19910;-65
2020/12/16 07:38:34;;;;;;;;;;;8.80;99.90;;;;;;5070615;28;19916;-64
2020/12/16 07:41:00;;;;;;;;;;;8.90;99.90;;;;;;5073054;28;19911;-64
2020/12/16 07:43:26;;;;;;;;;;;9.00;99.90;;;;;;5066348;28;19914;-64
2020/12/16 07:46:09;;;;;;;;;;;9.10;99.90;;;;;;5063843;28;20279;-65
2020/12/16 07:48:35;;;;;;;;;;;9.00;99.90;;;;;;5066417;28;19986;-64
2020/12/16 07:51:05;;;;;;;;;;;9.00;99.90;;;;;;5066882;28;19904;-64
2020/12/16 07:53:31;;;;;;;;;;;9.00;99.90;;;;;;5066310;28;19916;-64
2020/12/16 07:56:00;;;;;;;;;;;9.00;99.90;;;;;;5071066;28;19909;-64
2020/12/16 07:58:26;;;;;;;;;;;9.20;99.90;;;;;;5069900;28;20024;-64
2020/12/16 08:00:52;;;;;;;;;;;9.20;99.90;;;;;;5066934;28;19999;-64
2020/12/16 08:03:17;;;;;;;;;;;9.30;99.90;;;;;;5066202;28;19909;-64
2020/12/16 08:05:43;;;;;;;;;;;9.20;99.90;;;;;;5072512;28;19952;-63
2020/12/16 08:08:09;;;;;;;;;;;9.30;99.90;;;;;;5065942;28;19915;-63
2020/12/16 08:10:34;;;;;;;;;;;9.40;99.90;;;;;;5071791;28;19931;-63
2020/12/16 08:13:00;;;;;;;;;;;9.50;99.90;;;;;;5065865;28;19915;-63
2020/12/16 08:15:27;;;;;;;;;;;10.00;99.90;;;;;;5072353;28;19904;-63
2020/12/16 08:17:52;;;;;;;;;;;9.80;99.90;;;;;;5065277;28;20038;-63
2020/12/16 08:20:18;;;;;;;;;;;9.60;99.90;;;;;;5072091;28;19904;-63
2020/12/16 08:22:45;;;;;;;;;;;9.70;99.90;;;;;;5065947;28;20365;-64
2020/12/16 08:25:11;;;;;;;;;;;9.70;99.90;;;;;;5060873;28;19962;-63
2020/12/16 08:27:37;;;;;;;;;;;9.80;99.90;;;;;;5067223;28;19908;-63
2020/12/16 08:30:04;;;;;;;;;;;10.00;99.90;;;;;;5066992;28;19905;-63
2020/12/16 08:32:32;;;;;;;;;;;10.10;99.90;;;;;;5069919;28;20700;-63
2020/12/16 08:34:58;;;;;;;;;;;10.10;99.90;;;;;;5061280;28;19917;-63
2020/12/16 08:37:24;;;;;;;;;;;10.40;99.90;;;;;;5069377;28;19923;-64
2020/12/16 08:39:49;;;;;;;;;;;10.40;99.90;;;;;;5070906;28;19908;-63
2020/12/16 08:42:22;;;;;;;;;;;10.40;99.90;;;;;;5066915;28;19944;-62
2020/12/16 08:44:47;;;;;;;;;;;10.40;99.90;;;;;;5069069;28;19911;-63
2020/12/16 08:47:23;;;;;;;;;;;10.50;99.90;;;;;;5068553;28;20249;-62
2020/12/16 08:49:50;;;;;;;;;;;10.50;99.90;;;;;;5067493;28;19904;-63
2020/12/16 08:52:15;;;;;;;;;;;10.60;99.90;;;;;;5068611;28;19931;-63
2020/12/16 08:54:41;;;;;;;;;;;10.80;99.90;;;;;;5066478;28;20364;-63
2020/12/16 08:57:07;;;;;;;;;;;10.80;99.90;;;;;;5068522;28;19912;-63
2020/12/16 08:59:33;;;;;;;;;;;10.70;99.90;;;;;;5067756;28;19933;-63
2020/12/16 09:02:01;;;;;;;;;;;11.00;99.90;;;;;;5069742;28;19939;-63
2020/12/16 09:04:27;;;;;;;;;;;10.80;99.90;;;;;;5057777;28;19911;-63
2020/12/16 09:07:09;;;;;;;;;;;11.00;99.90;;;;;;5069416;28;19909;-63
2020/12/16 09:09:35;;;;;;;;;;;10.90;99.90;;;;;;5069057;28;19916;-63
2020/12/16 09:12:01;;;;;;;;;;;11.10;99.90;;;;;;5069842;28;19913;-63
2020/12/16 09:14:27;;;;;;;;;;;11.10;99.90;;;;;;5059691;28;19955;-63
2020/12/16 09:16:53;;;;;;;;;;;11.10;99.90;;;;;;5069209;28;20539;-63
2020/12/16 09:19:20;;;;;;;;;;;11.20;99.90;;;;;;5062211;28;19911;-66
2020/12/16 09:21:46;;;;;;;;;;;11.40;99.90;;;;;;5063956;28;20068;-63
2020/12/16 09:24:11;;;;;;;;;;;11.30;99.90;;;;;;5069611;28;19943;-64
2020/12/16 09:26:42;;;;;;;;;;;11.20;99.90;;;;;;5069683;28;20001;-64
2020/12/16 09:29:33;;;;;;;;;;;11.20;99.90;;;;;;5064710;28;20030;-64
2020/12/16 09:32:07;;;;;;;;;;;11.20;99.90;;;;;;5065302;28;19920;-65
2020/12/16 09:34:37;;;;;;;;;;;11.20;99.90;;;;;;5062853;28;19905;-64
2020/12/16 09:37:13;;;;;;;;;;;11.30;99.90;;;;;;5068424;28;20362;-63
2020/12/16 09:39:38;;;;;;;;;;;11.40;99.90;;;;;;5068322;28;19915;-62
2020/12/16 09:42:07;;;;;;;;;;;11.40;99.90;;;;;;5069612;28;20291;-63
2020/12/16 09:44:33;;;;;;;;;;;11.50;99.90;;;;;;5069236;28;19905;-63
2020/12/16 09:47:11;;;;;;;;;;;11.50;99.90;;;;;;5069670;28;19904;-63
2020/12/16 09:49:37;;;;;;;;;;;11.50;99.90;;;;;;5068031;28;19905;-63
2020/12/16 09:52:02;;;;;;;;;;;11.80;99.90;;;;;;5068712;28;19908;-61
2020/12/16 09:54:29;;;;;;;;;;;11.80;99.90;;;;;;5064342;28;19915;-67
2020/12/16 09:57:05;;;;;;;;;;;11.90;99.90;;;;;;5056950;28;19908;-62
2020/12/16 09:59:30;;;;;;;;;;;11.80;99.90;;;;;;5060949;28;19915;-61
2020/12/16 10:01:56;;;;;;;;;;;11.90;99.90;;;;;;5068931;28;19904;-61
2020/12/16 10:04:21;;;;;;;;;;;11.90;99.90;;;;;;5061362;28;20432;-62
2020/12/16 10:06:47;;;;;;;;;;;11.90;99.90;;;;;;5050974;28;19905;-61
2020/12/16 10:09:12;;;;;;;;;;;12.00;99.90;;;;;;5061486;28;20007;-62
2020/12/16 10:11:38;;;;;;;;;;;11.90;99.90;;;;;;5050778;28;19911;-62
2020/12/16 10:14:04;;;;;;;;;;;12.20;99.90;;;;;;5067051;28;19908;-62
2020/12/16 10:16:31;;;;;;;;;;;12.10;99.90;;;;;;5070102;28;19908;-62
2020/12/16 10:18:58;;;;;;;;;;;12.30;99.90;;;;;;5063559;28;20054;-62
2020/12/16 10:21:23;;;;;;;;;;;12.30;99.90;;;;;;5070368;28;20352;-62
2020/12/16 10:23:49;;;;;;;;;;;12.10;99.90;;;;;;5067474;28;20012;-62
2020/12/16 10:26:14;;;;;;;;;;;12.50;99.90;;;;;;5068608;28;19904;-63
2020/12/16 10:28:40;;;;;;;;;;;12.50;99.90;;;;;;5066575;28;19916;-62
2020/12/16 10:31:06;;;;;;;;;;;12.60;99.90;;;;;;5067629;28;20364;-62
2020/12/16 10:33:31;;;;;;;;;;;12.50;99.90;;;;;;5065569;28;20401;-62
2020/12/16 10:35:57;;;;;;;;;;;12.80;99.90;;;;;;5066766;28;19995;-62
2020/12/16 10:38:22;;;;;;;;;;;12.90;99.90;;;;;;5064544;28;19916;-62
2020/12/16 10:40:48;;;;;;;;;;;13.10;99.90;;;;;;5065816;28;20598;-62
2020/12/16 10:43:13;;;;;;;;;;;13.30;99.90;;;;;;5063476;28;20283;-62
2020/12/16 10:45:39;;;;;;;;;;;13.30;99.90;;;;;;5068969;28;19950;-62
2020/12/16 10:48:05;;;;;;;;;;;13.20;99.90;;;;;;5063667;28;19951;-62
2020/12/16 10:50:30;;;;;;;;;;;13.00;99.90;;;;;;5069883;28;19964;-62
2020/12/16 10:52:59;;;;;;;;;;;12.90;99.90;;;;;;5062839;28;19909;-62
2020/12/16 10:55:25;;;;;;;;;;;12.90;99.90;;;;;;5057904;28;19987;-63
2020/12/16 10:57:51;;;;;;;;;;;13.00;99.90;;;;;;5063388;28;20016;-66
2020/12/16 11:00:17;;;;;;;;;;;13.20;99.90;;;;;;5070097;28;19911;-62
2020/12/16 11:02:42;;;;;;;;;;;13.30;99.90;;;;;;5063957;28;19927;-65
2020/12/16 11:05:08;;;;;;;;;;;13.60;99.90;;;;;;5068773;28;19947;-62
2020/12/16 11:07:33;;;;;;;;;;;13.90;99.90;;;;;;5065879;28;20326;-61
2020/12/16 11:09:59;;;;;;;;;;;13.70;99.90;;;;;;5049817;28;19923;-62
2020/12/16 11:12:24;;;;;;;;;;;13.50;99.90;;;;;;5064546;28;19913;-61
2020/12/16 11:14:50;;;;;;;;;;;13.40;99.90;;;;;;5069234;28;19901;-62
2020/12/16 11:17:15;;;;;;;;;;;13.60;99.90;;;;;;5065930;28;19917;-62
2020/12/16 11:19:41;;;;;;;;;;;13.90;99.90;;;;;;5061246;28;19904;-62
2020/12/16 11:22:07;;;;;;;;;;;13.80;99.90;;;;;;5067772;28;19967;-64
2020/12/16 11:24:32;;;;;;;;;;;13.80;99.90;;;;;;5065662;28;20280;-64
2020/12/16 11:26:58;;;;;;;;;;;13.90;99.90;;;;;;5068285;28;19905;-65
2020/12/16 11:29:24;;;;;;;;;;;14.10;99.90;;;;;;5060926;28;20403;-65
2020/12/16 11:32:01;;;;;;;;;;;14.10;99.90;;;;;;5070983;28;19904;-64
2020/12/16 11:34:28;;;;;;;;;;;14.60;99.90;;;;;;5063755;28;19911;-64
2020/12/16 11:36:55;;;;;;;;;;;14.70;99.90;;;;;;5071868;28;20357;-64
2020/12/16 11:39:22;;;;;;;;;;;14.90;99.90;;;;;;5064251;28;19915;-64
2020/12/16 11:41:48;;;;;;;;;;;14.60;99.90;;;;;;5072487;28;20034;-65
2020/12/16 11:44:15;;;;;;;;;;;14.70;99.90;;;;;;5070254;28;20077;-65
2020/12/16 11:46:41;;;;;;;;;;;14.40;99.90;;;;;;5073264;28;19927;-65
2020/12/16 11:49:07;;;;;;;;;;;14.30;99.90;;;;;;5068804;28;20368;-64
2020/12/16 11:51:47;;;;;;;;;;;14.30;99.90;;;;;;5026167;28;19927;-64
2020/12/16 11:54:13;;;;;;;;;;;14.30;99.90;;;;;;5046557;28;19909;-64
2020/12/16 11:56:38;;;;;;;;;;;14.40;99.90;;;;;;5073057;28;19983;-64
2020/12/16 11:59:04;;;;;;;;;;;14.30;99.90;;;;;;5068053;28;19991;-65
2020/12/16 12:01:30;;;;;;;;;;;14.60;99.90;;;;;;5066827;28;19912;-65
2020/12/16 12:03:56;;;;;;;;;;;14.20;99.90;;;;;;5065953;28;19904;-65
2020/12/16 12:06:21;;;;;;;;;;;14.10;99.90;;;;;;5072940;28;19914;-65
2020/12/16 12:08:47;;;;;;;;;;;13.90;99.90;;;;;;5065776;28;19916;-64
2020/12/16 12:11:13;;;;;;;;;;;13.70;99.90;;;;;;5072765;28;19999;-65
2020/12/16 12:13:39;;;;;;;;;;;13.60;99.90;;;;;;5062109;28;19905;-65
2020/12/16 12:16:12;;;;;;;;;;;14.00;99.90;;;;;;5072613;28;20224;-64
2020/12/16 12:18:41;;;;;;;;;;;14.00;99.90;;;;;;5066175;28;20333;-65
2020/12/16 12:21:07;;;;;;;;;;;13.90;99.90;;;;;;5071265;28;19915;-65
2020/12/16 12:23:32;;;;;;;;;;;13.90;99.90;;;;;;5067889;28;19905;-65
2020/12/16 12:25:58;;;;;;;;;;;14.20;99.90;;;;;;5069159;28;20439;-64
2020/12/16 12:28:23;;;;;;;;;;;14.20;99.90;;;;;;5065749;28;19959;-65
2020/12/16 12:30:49;;;;;;;;;;;14.10;99.90;;;;;;5072188;28;20414;-64
2020/12/16 12:33:15;;;;;;;;;;;14.10;99.90;;;;;;5069724;28;20511;-65
2020/12/16 12:35:40;;;;;;;;;;;14.20;99.90;;;;;;5070602;28;19908;-64
2020/12/16 12:38:06;;;;;;;;;;;14.40;99.90;;;;;;5083632;28;20403;-65
2020/12/16 12:40:32;;;;;;;;;;;14.30;99.90;;;;;;5069367;28;19909;-65
2020/12/16 12:42:57;;;;;;;;;;;14.60;99.90;;;;;;5066050;28;19905;-65
2020/12/16 12:45:23;;;;;;;;;;;14.70;99.90;;;;;;5072148;28;19916;-65
2020/12/16 12:47:48;;;;;;;;;;;14.90;99.90;;;;;;5066439;28;20047;-64
2020/12/16 12:50:14;;;;;;;;;;;14.70;99.90;;;;;;5067558;28;19943;-65
2020/12/16 12:52:39;;;;;;;;;;;14.80;99.90;;;;;;5065436;28;19999;-65
2020/12/16 12:55:05;;;;;;;;;;;15.10;99.90;;;;;;5058029;28;19908;-65
2020/12/16 12:57:31;;;;;;;;;;;15.30;99.90;;;;;;5067673;28;19990;-65
2020/12/16 12:59:57;;;;;;;;;;;15.00;99.90;;;;;;5069386;28;19909;-65
2020/12/16 13:02:27;;;;;;;;;;;15.40;99.90;;;;;;5068904;28;19912;-65
2020/12/16 13:04:53;;;;;;;;;;;15.20;99.90;;;;;;5068266;28;19914;-65
2020/12/16 13:07:18;;;;;;;;;;;15.20;99.90;;;;;;5069043;28;20299;-65
2020/12/16 13:09:44;;;;;;;;;;;15.00;99.90;;;;;;5056485;28;19923;-65
2020/12/16 13:12:09;;;;;;;;;;;14.60;99.90;;;;;;5069589;28;19915;-65
2020/12/16 13:14:37;;;;;;;;;;;14.40;99.90;;;;;;5062681;28;19911;-65
2020/12/16 13:17:03;;;;;;;;;;;14.30;99.90;;;;;;5069275;28;19908;-65
2020/12/16 13:19:28;;;;;;;;;;;14.10;99.90;;;;;;5061635;28;19916;-65
2020/12/16 13:21:54;;;;;;;;;;;13.80;99.90;;;;;;5085158;28;19912;-65
2020/12/16 13:24:22;;;;;;;;;;;13.90;99.90;;;;;;5063175;28;19911;-65
2020/12/16 13:26:48;;;;;;;;;;;13.90;99.90;;;;;;5068430;28;19911;-65
2020/12/16 13:29:14;;;;;;;;;;;13.70;99.90;;;;;;5065057;28;19904;-64
2020/12/16 13:31:39;;;;;;;;;;;13.90;99.90;;;;;;5071010;28;19904;-64
2020/12/16 13:34:07;;;;;;;;;;;14.00;99.90;;;;;;5063070;28;20113;-65
2020/12/16 13:36:33;;;;;;;;;;;14.00;99.90;;;;;;5068477;28;19987;-65
2020/12/16 13:38:58;;;;;;;;;;;14.10;99.90;;;;;;5064090;28;20359;-65
2020/12/16 13:41:25;;;;;;;;;;;14.10;99.90;;;;;;5070726;28;19911;-64
2020/12/16 13:43:50;;;;;;;;;;;14.10;99.90;;;;;;5064310;28;19954;-65
2020/12/16 13:46:16;;;;;;;;;;;14.10;99.90;;;;;;5071014;28;19988;-65
2020/12/16 13:48:41;;;;;;;;;;;14.00;99.90;;;;;;5064188;28;19909;-65
2020/12/16 13:51:07;;;;;;;;;;;14.10;99.90;;;;;;5070531;28;19912;-65
2020/12/16 13:53:33;;;;;;;;;;;13.90;99.90;;;;;;5063546;28;20453;-65
2020/12/16 13:55:59;;;;;;;;;;;13.60;99.90;;;;;;5070589;28;19905;-65
2020/12/16 13:58:24;;;;;;;;;;;13.60;99.90;;;;;;5064075;28;19920;-65
2020/12/16 14:00:49;;;;;;;;;;;13.40;99.90;;;;;;5069634;28;20422;-65
2020/12/16 14:03:15;;;;;;;;;;;13.30;99.90;;;;;;5063769;28;19919;-64
2020/12/16 14:05:41;;;;;;;;;;;13.30;99.90;;;;;;5070280;28;20067;-65
2020/12/16 14:08:06;;;;;;;;;;;13.20;99.90;;;;;;5068188;28;19914;-65
2020/12/16 14:10:32;;;;;;;;;;;13.20;99.90;;;;;;5061956;28;20364;-65
2020/12/16 14:12:58;;;;;;;;;;;13.10;99.90;;;;;;5064173;28;20418;-65
2020/12/16 14:15:24;;;;;;;;;;;13.10;99.90;;;;;;5068714;28;19904;-65
2020/12/16 14:17:50;;;;;;;;;;;13.10;99.90;;;;;;5053172;28;19923;-65
2020/12/16 14:20:15;;;;;;;;;;;13.00;99.90;;;;;;5070185;28;19904;-65
2020/12/16 14:22:41;;;;;;;;;;;13.00;99.90;;;;;;5067322;28;19909;-65